Time;durP1;ratioP1;P1;durP2;ratioP2;P2;SDS_P1;SDS_P2;PMS_P1;PMS_P2;Temp;Humidity;BMP_temperature;BMP_pressure;BME280_temperature;BME280_humidity;BME280_pressure;Samples;Min_cycle;Max_cycle;Signal;HPM_P1;HPM_P2
2022/05/01 00:01:11;;;;;;;8.02;6.07;;;;;;;10.71;nan;100930.97;5053378;28;20098;-71
2022/05/01 00:03:36;;;;;;;7.30;6.15;;;;;;;10.65;nan;100922.06;5053463;28;20040;-71
2022/05/01 00:06:04;;;;;;;10.57;6.63;;;;;;;10.78;nan;100943.06;5053640;28;20037;-71
2022/05/01 00:08:30;;;;;;;11.27;6.82;;;;;;;10.76;nan;100937.19;5050110;28;20033;-72
2022/05/01 00:10:56;;;;;;;10.13;7.05;;;;;;;10.76;nan;100934.56;5039799;28;20532;-71
2022/05/01 00:13:22;;;;;;;12.18;7.88;;;;;;;10.70;nan;100924.88;5032716;28;20068;-71
2022/05/01 00:15:48;;;;;;;11.93;8.15;;;;;;;;;;5054002;28;20087;-71
2022/05/01 00:18:13;;;;;;;15.63;8.73;;;;;;;;;;5056032;28;20428;-70
2022/05/01 00:20:38;;;;;;;13.90;8.40;;;;;;;;;;5033459;28;20553;-72
2022/05/01 00:23:04;;;;;;;13.32;8.20;;;;;;;;;;5051067;28;20071;-70
2022/05/01 00:25:30;;;;;;;12.23;8.00;;;;;;;;;;5051824;28;20045;-69
2022/05/01 00:27:55;;;;;;;12.52;8.55;;;;;;;;;;5051564;28;20059;-70
2022/05/01 00:30:20;;;;;;;13.48;8.43;;;;;;;;;;5042455;28;20073;-71
2022/05/01 00:38:14;;;;;;;13.57;8.60;;;;;;;;;;5052858;28;20033;-69
2022/05/01 00:40:39;;;;;;;17.17;9.18;;;;;;;;;;5029885;28;20044;-70
2022/05/01 00:43:04;;;;;;;13.43;9.15;;;;;;;;;;5052643;28;20805;-71
2022/05/01 00:45:30;;;;;;;15.48;9.88;;;;;;;;;;5052715;28;20110;-71
2022/05/01 00:47:56;;;;;;;13.10;9.18;;;;;;;;;;5051959;28;20047;-72
2022/05/01 00:50:21;;;;;;;13.98;9.70;;;;;;;;;;5050961;28;20033;-70
2022/05/01 00:52:47;;;;;;;13.52;9.65;;;;;;;;;;5031198;28;20094;-70
2022/05/01 00:55:12;;;;;;;15.82;10.25;;;;;;;;;;5052409;28;20029;-70
2022/05/01 00:57:38;;;;;;;14.43;10.05;;;;;;;;;;5052227;28;20055;-70
2022/05/01 01:00:04;;;;;;;15.57;9.60;;;;;;;;;;5043703;28;20123;-72
2022/05/01 01:02:30;;;;;;;15.07;10.10;;;;;;;;;;5049310;28;20044;-70
2022/05/01 01:04:56;;;;;;;16.55;10.63;;;;;;;;;;5052005;28;20052;-71
2022/05/01 01:07:21;;;;;;;12.50;9.80;;;;;;;;;;5050941;28;20036;-71
2022/05/01 01:09:46;;;;;;;13.27;9.57;;;;;;;;;;5048071;28;20269;-70
2022/05/01 01:15:14;;;;;;;16.98;10.55;;;;;;;;;;5034793;28;20056;-70
2022/05/01 01:17:43;;;;;;;19.08;10.55;;;;;;;;;;5035076;28;20033;-70
2022/05/01 01:20:12;;;;;;;16.17;10.93;;;;;;;;;;5060209;28;20078;-71
2022/05/01 01:22:38;;;;;;;15.02;10.15;;;;;;;;;;5039892;28;20045;-71
2022/05/01 01:25:04;;;;;;;16.15;10.27;;;;;;;;;;5052853;28;20093;-71
2022/05/01 01:27:30;;;;;;;14.57;9.77;;;;;;;9.40;nan;100909.16;5037235;28;20131;-69
2022/05/01 01:32:40;;;;;;;15.63;9.43;;;;;;;;;;5050673;28;20025;-70
2022/05/01 01:35:06;;;;;;;16.05;10.30;;;;;;;;;;5018925;28;20380;-71
2022/05/01 01:37:33;;;;;;;14.98;9.52;;;;;;;;;;5019448;28;20063;-70
2022/05/01 01:39:58;;;;;;;13.98;9.43;;;;;;;;;;5051861;28;20032;-69
2022/05/01 01:42:25;;;;;;;14.40;8.75;;;;;;;;;;5031901;28;20052;-71
2022/05/01 01:44:52;;;;;;;12.65;9.30;;;;;;;;;;5032474;28;20028;-71
2022/05/01 01:47:17;;;;;;;12.68;9.07;;;;;;;;;;5051707;28;20124;-71
2022/05/01 01:49:43;;;;;;;13.52;8.52;;;;;;;;;;5051237;28;20124;-70
2022/05/01 01:52:08;;;;;;;12.10;8.33;;;;;;;;;;5050364;28;20041;-70
2022/05/01 01:54:33;;;;;;;14.32;8.60;;;;;;;;;;5069009;28;20333;-71
2022/05/01 01:56:59;;;;;;;11.50;8.40;;;;;;;;;;5032768;28;20044;-71
2022/05/01 01:59:24;;;;;;;11.32;8.10;;;;;;;;;;5048915;28;20037;-71
2022/05/01 02:01:49;;;;;;;12.67;8.27;;;;;;;;;;5033278;28;20036;-70
2022/05/01 02:04:15;;;;;;;10.80;8.30;;;;;;;;;;5048027;28;20269;-72
2022/05/01 02:06:40;;;;;;;13.97;8.03;;;;;;;;;;5051125;28;20331;-69
2022/05/01 02:09:07;;;;;;;11.73;8.27;;;;;;;;;;5061856;28;20739;-70
2022/05/01 02:11:36;;;;;;;14.98;8.60;;;;;;;;;;5073668;28;20033;-70
2022/05/01 02:14:01;;;;;;;12.33;7.87;;;;;;;;;;5058356;28;20029;-70
2022/05/01 02:16:26;;;;;;;12.10;8.45;;;;;;;;;;5073612;28;20068;-69
2022/05/01 02:18:52;;;;;;;11.30;7.70;;;;;;;;;;5074734;28;20045;-69
2022/05/01 02:21:35;;;;;;;12.70;7.90;;;;;;;;;;5075004;28;20305;-71
2022/05/01 02:24:04;;;;;;;11.32;8.23;;;;;;;;;;5070728;28;20037;-70
2022/05/01 02:26:30;;;;;;;11.63;8.10;;;;;;;;;;5066597;28;20028;-71
2022/05/01 02:28:55;;;;;;;12.07;8.73;;;;;;;;;;5060912;28;20044;-70
2022/05/01 02:31:22;;;;;;;10.93;8.15;;;;;;;;;;5059741;28;20395;-69
2022/05/01 02:33:47;;;;;;;10.43;7.72;;;;;;;;;;5051878;28;20077;-70
2022/05/01 02:36:16;;;;;;;12.73;7.88;;;;;;;;;;5058052;28;20036;-72
2022/05/01 02:38:41;;;;;;;15.25;8.10;;;;;;;;;;5059396;28;20148;-72
2022/05/01 02:41:07;;;;;;;13.30;8.50;;;;;;;;;;5050792;28;20073;-71
2022/05/01 02:43:32;;;;;;;10.63;8.13;;;;;;;;;;5055482;28;20374;-72
2022/05/01 02:45:57;;;;;;;11.53;8.10;;;;;;;;;;5051274;28;20037;-72
2022/05/01 02:48:23;;;;;;;13.97;7.67;;;;;;;;;;5051793;28;20398;-71
2022/05/01 02:50:48;;;;;;;15.88;8.02;;;;;;;;;;5051733;28;20281;-72
2022/05/01 02:53:14;;;;;;;14.43;8.45;;;;;;;;;;5051673;28;20441;-71
2022/05/01 02:55:39;;;;;;;11.48;7.15;;;;;;;;;;5051638;28;20053;-71
2022/05/01 02:58:04;;;;;;;14.80;8.07;;;;;;;;;;5028310;28;20466;-72
2022/05/01 03:00:29;;;;;;;10.55;7.68;;;;;;;;;;5038696;28;20029;-72
2022/05/01 03:02:58;;;;;;;13.25;7.43;;;;;;;;;;5050649;28;20044;-72
2022/05/01 03:05:24;;;;;;;10.35;7.85;;;;;;;;;;5050800;28;20072;-71
2022/05/01 03:07:49;;;;;;;14.65;8.00;;;;;;;;;;5047974;28;20128;-71
2022/05/01 03:10:15;;;;;;;11.00;7.70;;;;;;;;;;5045267;28;20120;-72
2022/05/01 03:12:40;;;;;;;11.93;7.97;;;;;;;;;;5045756;28;20033;-71
2022/05/01 03:15:06;;;;;;;11.95;7.75;;;;;;;;;;5033955;28;20029;-71
2022/05/01 03:22:10;;;;;;;11.55;7.50;;;;;;;;;;5054181;28;20044;-72
2022/05/01 03:23:01;;;;;;;13.18;8.70;;;;;;;;;;5054306;28;20037;-70
2022/05/01 03:25:26;;;;;;;12.90;7.77;;;;;;;;;;5053950;28;20695;-72
2022/05/01 03:27:53;;;;;;;9.95;7.65;;;;;;;;;;5054317;28;20296;-71
2022/05/01 03:30:19;;;;;;;9.48;7.15;;;;;;;;;;5052856;28;20041;-71
2022/05/01 03:32:45;;;;;;;11.07;8.20;;;;;;;;;;5054374;28;20037;-72
2022/05/01 03:35:10;;;;;;;10.32;7.00;;;;;;;;;;5054126;28;20764;-70
2022/05/01 03:37:36;;;;;;;14.07;7.55;;;;;;;;;;5053787;28;20068;-71
2022/05/01 03:40:04;;;;;;;10.60;7.90;;;;;;;;;;5052763;28;20427;-71
2022/05/01 03:42:30;;;;;;;10.23;7.67;;;;;;;;;;5051893;28;20499;-71
2022/05/01 03:44:55;;;;;;;14.10;7.87;;;;;;;;;;5053086;28;20043;-71
2022/05/01 03:47:21;;;;;;;10.52;7.78;;;;;;;;;;5053468;28;20285;-71
2022/05/01 03:49:46;;;;;;;10.45;7.57;;;;;;;;;;5050536;28;20033;-70
2022/05/01 03:52:11;;;;;;;12.03;7.63;;;;;;;;;;5048524;28;20041;-70
2022/05/01 03:54:36;;;;;;;10.40;7.33;;;;;;;;;;5052742;28;20394;-71
2022/05/01 03:57:02;;;;;;;10.73;7.70;;;;;;;;;;5035353;28;20298;-69
2022/05/01 03:59:29;;;;;;;11.57;7.80;;;;;;;;;;5052233;28;20750;-70
2022/05/01 04:01:55;;;;;;;12.15;7.25;;;;;;;;;;5050969;28;20045;-71
2022/05/01 04:04:20;;;;;;;9.85;7.10;;;;;;;;;;5052094;28;20107;-72
2022/05/01 04:06:46;;;;;;;10.60;7.50;;;;;;;;;;5052020;28;20500;-71
2022/05/01 04:09:14;;;;;;;10.82;7.35;;;;;;;8.85;nan;100912.00;5051935;28;20285;-73
2022/05/01 04:11:39;;;;;;;10.63;7.07;;;;;;;;;;5051813;28;20409;-73
2022/05/01 04:14:06;;;;;;;14.45;7.60;;;;;;;;;;5051740;28;20041;-73
2022/05/01 04:16:31;;;;;;;11.63;7.32;;;;;;;;;;5050735;28;20045;-74
2022/05/01 04:18:57;;;;;;;10.68;6.95;;;;;;;;;;5060891;28;20044;-73
2022/05/01 04:21:23;;;;;;;11.32;7.30;;;;;;;;;;5051782;28;20049;-73
2022/05/01 04:23:49;;;;;;;10.98;7.43;;;;;;;;;;5051829;28;20600;-74
2022/05/01 04:26:14;;;;;;;13.27;7.20;;;;;;;;;;5050948;28;20123;-73
2022/05/01 04:29:35;;;;;;;11.68;7.05;;;;;;;;;;5052248;28;20769;-73
2022/05/01 04:31:25;;;;;;;12.63;6.93;;;;;;;;;;5051293;28;20061;-73
2022/05/01 04:33:50;;;;;;;10.73;7.63;;;;;;;;;;5050353;28;20123;-72
2022/05/01 04:36:15;;;;;;;13.82;7.28;;;;;;;;;;5049205;28;20309;-73
2022/05/01 04:38:40;;;;;;;8.88;6.57;;;;;;;;;;5049418;28;20037;-74
2022/05/01 04:41:06;;;;;;;11.93;7.97;;;;;;;;;;5052236;28;20458;-74
2022/05/01 04:43:33;;;;;;;11.20;6.93;;;;;;;;;;5016584;28;20267;-73
2022/05/01 04:45:59;;;;;;;9.25;6.65;;;;;;;;;;5060803;28;20037;-73
2022/05/01 04:48:24;;;;;;;9.83;6.27;;;;;;;;;;5046420;28;20558;-74
2022/05/01 04:50:50;;;;;;;10.45;6.55;;;;;;;;;;5045006;28;20305;-75
2022/05/01 04:53:17;;;;;;;10.88;6.43;;;;;;;;;;5056428;28;20032;-74
2022/05/01 04:55:44;;;;;;;8.98;6.63;;;;;;;;;;5051861;28;20479;-74
2022/05/01 04:58:10;;;;;;;10.15;6.45;;;;;;;;;;5056968;28;20041;-74
2022/05/01 05:00:35;;;;;;;9.77;6.40;;;;;;;;;;5054883;28;20029;-74
2022/05/01 05:03:01;;;;;;;8.70;6.53;;;;;;;;;;5053281;28;20033;-74
2022/05/01 05:05:27;;;;;;;8.70;6.07;;;;;;;;;;5056571;28;20116;-74
2022/05/01 05:07:53;;;;;;;9.38;6.00;;;;;;;;;;5051520;28;20036;-74
2022/05/01 05:10:19;;;;;;;8.85;5.97;;;;;;;;;;5033897;28;20029;-74
2022/05/01 05:12:45;;;;;;;8.02;5.20;;;;;;;;;;5051852;28;20094;-74
2022/05/01 05:15:11;;;;;;;9.13;6.35;;;;;;;;;;5052298;28;20037;-74
2022/05/01 05:17:37;;;;;;;10.45;6.13;;;;;;;;;;5056897;28;20052;-73
2022/05/01 05:20:03;;;;;;;14.02;7.20;;;;;;;;;;5058491;28;20402;-73
2022/05/01 05:22:28;;;;;;;7.40;5.45;;;;;;;;;;5058397;28;20086;-73
2022/05/01 05:24:54;;;;;;;9.77;5.13;;;;;;;;;;5050254;28;20120;-74
2022/05/01 05:27:21;;;;;;;10.77;5.63;;;;;;;11.06;nan;100942.69;5047949;28;20344;-73
2022/05/01 05:29:50;;;;;;;11.82;5.53;;;;;;;11.11;nan;100933.31;5033287;28;20119;-75
2022/05/01 05:32:16;;;;;;;11.80;5.60;;;;;;;11.13;nan;100939.97;5051641;28;20548;-74
2022/05/01 05:34:41;;;;;;;9.80;5.32;;;;;;;11.30;nan;100942.91;5059235;28;20056;-73
2022/05/01 05:37:07;;;;;;;7.28;5.28;;;;;;;11.36;nan;100944.66;5057801;28;20491;-74
2022/05/01 05:39:32;;;;;;;7.75;5.18;;;;;;;11.46;nan;100957.34;5036062;28;20033;-73
2022/05/01 05:41:58;;;;;;;9.25;5.43;;;;;;;11.41;nan;100944.00;5060478;28;20647;-75
2022/05/01 05:44:23;;;;;;;8.32;5.40;;;;;;;11.59;nan;100957.25;5043314;28;20108;-74
2022/05/01 05:46:49;;;;;;;9.20;5.25;;;;;;;11.66;nan;100965.91;5051200;28;20036;-75
2022/05/01 05:49:14;;;;;;;6.80;5.22;;;;;;;11.77;nan;100961.72;5042750;28;20044;-75
2022/05/01 05:51:40;;;;;;;6.03;4.90;;;;;;;11.74;nan;100938.41;5053017;28;20382;-75
2022/05/01 05:54:05;;;;;;;8.68;5.55;;;;;;;11.88;nan;100968.16;5069534;28;20052;-75
2022/05/01 05:56:31;;;;;;;9.27;5.15;;;;;;;11.80;nan;100949.91;5076636;28;20028;-75
2022/05/01 05:58:56;;;;;;;13.27;5.70;;;;;;;11.98;nan;100965.78;5075701;28;20135;-74
2022/05/01 06:01:22;;;;;;;9.27;5.45;;;;;;;12.07;nan;100961.03;5074551;28;20021;-72
2022/05/01 06:03:49;;;;;;;11.40;5.32;;;;;;;12.07;nan;100956.56;5071701;28;20105;-73
2022/05/01 06:06:15;;;;;;;6.43;4.70;;;;;;;12.16;nan;100962.31;5029961;28;20037;-74
2022/05/01 06:08:41;;;;;;;6.80;5.28;;;;;;;12.18;nan;100951.56;5050277;28;20092;-74
2022/05/01 06:11:07;;;;;;;7.43;5.20;;;;;;;12.29;nan;100959.53;5066757;28;20012;-74
2022/05/01 06:13:33;;;;;;;7.18;5.57;;;;;;;12.37;nan;100966.34;5088399;28;20043;-72
2022/05/01 06:15:58;;;;;;;8.82;4.75;;;;;;;12.35;nan;100952.56;5077124;28;20383;-73
2022/05/01 06:18:24;;;;;;;9.32;6.22;;;;;;;12.51;nan;100964.34;5068665;28;20069;-73
2022/05/01 06:20:50;;;;;;;6.68;4.75;;;;;;;12.56;nan;100967.13;5075572;28;20050;-72
2022/05/01 06:23:16;;;;;;;7.07;5.60;;;;;;;12.50;nan;100950.34;5077345;28;20028;-73
2022/05/01 06:25:46;;;;;;;8.77;5.50;;;;;;;12.70;nan;100955.34;5059056;28;20036;-74
2022/05/01 06:28:12;;;;;;;6.70;4.80;;;;;;;12.88;nan;100958.94;5050640;28;20017;-76
2022/05/01 06:30:40;;;;;;;6.70;5.28;;;;;;;12.97;nan;100960.22;5039412;28;20094;-77
2022/05/01 06:33:10;;;;;;;6.65;4.93;;;;;;;13.00;nan;100959.81;5056463;28;20037;-76
2022/05/01 06:35:36;;;;;;;7.53;5.22;;;;;;;13.15;nan;100968.09;5032918;28;20029;-76
2022/05/01 06:38:01;;;;;;;5.78;4.45;;;;;;;13.29;nan;100959.97;5051104;28;20033;-77
2022/05/01 06:40:27;;;;;;;8.73;5.35;;;;;;;13.39;nan;100961.00;5052281;28;20693;-75
2022/05/01 06:42:52;;;;;;;5.82;4.88;;;;;;;13.43;nan;100940.19;5051241;28;20140;-77
2022/05/01 06:45:18;;;;;;;10.73;4.80;;;;;;;13.60;nan;100953.53;5047114;28;20182;-76
2022/05/01 06:47:43;;;;;;;5.75;4.60;;;;;;;13.74;nan;100956.72;5044106;28;20025;-76
2022/05/01 06:50:09;;;;;;;9.85;4.85;;;;;;;13.81;nan;100952.94;5049011;28;20128;-73
2022/05/01 06:52:34;;;;;;;5.55;4.65;;;;;;;14.03;nan;100952.31;5049806;28;20036;-74
2022/05/01 06:55:00;;;;;;;8.00;4.38;;;;;;;14.23;nan;100960.66;5048056;28;20040;-76
2022/05/01 06:57:26;;;;;;;6.35;4.13;;;;;;;14.23;nan;100941.34;5046094;28;20049;-75
2022/05/01 06:59:52;;;;;;;8.73;3.90;;;;;;;14.32;nan;100939.09;5031392;28;20036;-75
2022/05/01 07:02:18;;;;;;;8.50;4.40;;;;;;;14.57;nan;100952.06;5014107;28;20045;-73
2022/05/01 07:04:43;;;;;;;5.80;3.97;;;;;;;14.62;nan;100939.69;5021944;28;20029;-73
2022/05/01 07:07:09;;;;;;;7.68;4.07;;;;;;;14.70;nan;100941.16;5050890;28;20040;-72
2022/05/01 07:09:35;;;;;;;6.75;4.30;;;;;;;14.80;nan;100948.50;5048294;28;20025;-73
2022/05/01 07:12:00;;;;;;;6.78;3.80;;;;;;;14.86;nan;100947.50;5048511;28;20040;-74
2022/05/01 07:14:26;;;;;;;7.05;4.15;;;;;;;14.88;nan;100927.66;5051062;28;20398;-73
2022/05/01 07:16:51;;;;;;;6.43;3.83;;;;;;;15.15;nan;100950.09;5049388;28;20029;-72
2022/05/01 07:19:17;;;;;;;7.88;3.97;;;;;;;15.26;nan;100950.03;5026262;28;20132;-73
2022/05/01 07:21:42;;;;;;;8.65;4.10;;;;;;;15.28;nan;100942.63;5047772;28;20032;-73
2022/05/01 07:24:08;;;;;;;4.50;3.55;;;;;;;15.47;nan;100951.13;5050552;28;20037;-72
2022/05/01 07:26:34;;;;;;;7.18;3.67;;;;;;;15.57;nan;100947.00;5049353;28;20040;-72
2022/05/01 07:29:00;;;;;;;5.50;3.50;;;;;;;15.61;nan;100938.31;5041119;28;20037;-73
2022/05/01 07:31:26;;;;;;;5.05;3.42;;;;;;;15.72;nan;100941.94;5031015;28;20041;-74
2022/05/01 07:33:52;;;;;;;6.63;3.80;;;;;;;15.74;nan;100934.53;5047802;28;20044;-73
2022/05/01 07:36:19;;;;;;;4.65;3.25;;;;;;;15.88;nan;100924.34;5020835;28;20427;-73
2022/05/01 07:38:45;;;;;;;6.05;3.53;;;;;;;16.03;nan;100939.66;5046281;28;20476;-74
2022/05/01 07:41:11;;;;;;;4.78;3.17;;;;;;;16.13;nan;100951.19;5033227;28;20041;-77
2022/05/01 07:43:38;;;;;;;10.05;3.83;;;;;;;16.16;nan;100939.25;5030219;28;20038;-76
2022/05/01 07:46:04;;;;;;;5.22;3.72;;;;;;;16.21;nan;100939.34;5044605;28;20041;-75
2022/05/01 07:48:29;;;;;;;4.25;3.55;;;;;;;16.30;nan;100939.69;5047124;28;20041;-76
2022/05/01 07:50:55;;;;;;;5.65;3.58;;;;;;;16.25;nan;100927.16;5051260;28;20029;-77
2022/05/01 07:53:20;;;;;;;5.22;3.72;;;;;;;16.44;nan;100935.59;5051558;28;20039;-74
2022/05/01 07:55:46;;;;;;;6.47;3.60;;;;;;;16.52;nan;100936.97;5049472;28;20394;-75
2022/05/01 07:58:11;;;;;;;6.30;3.53;;;;;;;16.54;nan;100917.09;5022563;28;20511;-75
2022/05/01 08:00:37;;;;;;;5.25;3.67;;;;;;;16.62;nan;100934.44;5033129;28;20082;-76
2022/05/01 08:05:58;;;;;;;5.60;2.90;;;;;;;16.67;nan;100925.72;5032139;28;20750;-76
2022/05/01 08:08:24;;;;;;;4.65;3.20;;;;;;;16.76;nan;100925.00;5023145;28;20389;-75
2022/05/01 08:10:50;;;;;;;4.93;3.35;;;;;;;16.76;nan;100918.84;5012086;28;20041;-77
2022/05/01 08:13:16;;;;;;;4.03;3.10;;;;;;;16.81;nan;100921.63;5028356;28;20091;-76
2022/05/01 08:15:41;;;;;;;4.18;3.00;;;;;;;16.97;nan;100919.84;5032114;28;20041;-76
2022/05/01 08:21:07;;;;;;;6.88;3.15;;;;;;;17.06;nan;100918.34;5031533;28;20026;-74
2022/05/01 08:23:33;;;;;;;3.95;3.20;;;;;;;17.15;nan;100924.00;5018422;28;20065;-76
2022/05/01 08:26:03;;;;;;;7.03;3.00;;;;;;;17.22;nan;100920.06;5011661;28;20497;-76
2022/05/01 08:28:31;;;;;;;5.28;3.20;;;;;;;17.29;nan;100919.03;4998231;28;20034;-76
2022/05/01 08:30:57;;;;;;;9.98;2.80;;;;;;;17.42;nan;100915.91;5016384;28;20048;-75
2022/05/01 08:33:22;;;;;;;3.45;2.47;;;;;;;17.49;nan;100905.81;5032082;28;20038;-74
2022/05/01 08:35:48;;;;;;;4.05;2.58;;;;;;;17.59;nan;100927.16;5016137;28;20725;-76
2022/05/01 08:38:13;;;;;;;5.35;2.70;;;;;;;17.54;nan;100913.84;5028304;28;20052;-75
2022/05/01 08:40:39;;;;;;;3.05;2.42;;;;;;;17.70;nan;100924.59;5011036;28;20558;-76
2022/05/01 08:43:05;;;;;;;3.17;2.80;;;;;;;17.69;nan;100922.97;5029379;28;20436;-76
2022/05/01 08:45:45;;;;;;;2.88;2.60;;;;;;;17.77;nan;100919.81;5034232;28;20128;-76
2022/05/01 08:48:37;;;;;;;3.42;2.60;;;;;;;17.81;nan;100912.91;5033438;28;20042;-75
2022/05/01 08:51:04;;;;;;;6.15;2.50;;;;;;;17.95;nan;100906.03;5014918;28;20038;-76
2022/05/01 08:53:31;;;;;;;3.15;2.10;;;;;;;18.04;nan;100901.03;5014511;28;20034;-74
2022/05/01 08:55:58;;;;;;;11.95;2.63;;;;;;;18.17;nan;100905.03;5037284;28;20042;-76
2022/05/01 08:58:26;;;;;;;2.80;2.13;;;;;;;18.28;nan;100906.66;5042181;28;20052;-75
2022/05/01 09:00:52;;;;;;;2.83;2.15;;;;;;;18.06;nan;100857.06;5022183;28;20463;-75
2022/05/01 09:03:18;;;;;;;6.65;3.58;;;;;;;18.48;nan;100898.72;5021531;28;20041;-77
2022/05/01 09:05:44;;;;;;;4.47;2.33;;;;;;;18.41;nan;100887.50;5048159;28;20172;-73
2022/05/01 09:08:09;;;;;;;7.30;2.50;;;;;;;18.58;nan;100908.59;5032404;28;20056;-75
2022/05/01 09:10:40;;;;;;;4.87;2.50;;;;;;;18.48;nan;100888.06;5045415;28;20037;-77
2022/05/01 09:13:06;;;;;;;2.80;2.10;;;;;;;18.59;nan;100896.06;5051833;28;20270;-79
2022/05/01 09:15:37;;;;;;;3.15;2.28;;;;;;;18.61;nan;100896.59;5039589;28;20038;-77
2022/05/01 09:18:10;;;;;;;3.00;2.28;;;;;;;18.60;nan;100881.63;5051265;28;20395;-76
2022/05/01 09:20:38;;;;;;;5.90;2.10;;;;;;;18.75;nan;100888.84;5050650;28;20036;-77
2022/05/01 09:23:05;;;;;;;4.40;2.33;;;;;;;18.85;nan;100894.22;5030480;28;20037;-77
2022/05/01 09:25:32;;;;;;;2.95;2.22;;;;;;;18.93;nan;100893.66;5029421;28;20034;-78
2022/05/01 09:27:59;;;;;;;2.28;1.80;;;;;;;19.00;nan;100886.19;5031317;28;20574;-77
2022/05/01 09:30:35;;;;;;;3.22;2.20;;;;;;;18.83;nan;100849.09;5034423;28;20034;-79
2022/05/01 09:33:02;;;;;;;3.00;2.30;;;;;;;19.08;nan;100880.31;5037355;28;20064;-79
2022/05/01 09:35:32;;;;;;;4.57;2.42;;;;;;;19.17;nan;100882.41;5034381;28;20041;-78
2022/05/01 09:38:15;;;;;;;5.30;1.90;;;;;;;19.24;nan;100874.94;5027491;28;20045;-77
2022/05/01 09:40:53;;;;;;;3.15;2.00;;;;;;;19.23;nan;100868.00;5031194;28;20041;-78
2022/05/01 09:43:30;;;;;;;4.40;1.85;;;;;;;19.34;nan;100875.69;5034003;28;20044;-77
2022/05/01 09:46:15;;;;;;;3.08;2.67;;;;;;;19.27;nan;100855.69;5047558;28;20037;-78
2022/05/01 09:48:56;;;;;;;3.15;2.47;;;;;;;19.37;nan;100871.69;5034970;28;20029;-77
2022/05/01 09:51:21;;;;;;;4.40;2.70;;;;;;;19.37;nan;100863.69;5046849;28;20033;-78
2022/05/01 09:53:47;;;;;;;3.15;2.22;;;;;;;19.33;nan;100863.41;5019984;28;20042;-76
2022/05/01 09:56:13;;;;;;;4.63;2.20;;;;;;;19.37;nan;100849.50;5035488;28;20034;-78
2022/05/01 09:58:43;;;;;;;3.72;2.00;;;;;;;19.51;nan;100843.34;5041675;28;20057;-76
2022/05/01 10:01:15;;;;;;;2.10;1.90;;;;;;;19.61;nan;100849.69;5029213;28;20103;-76
2022/05/01 10:03:48;;;;;;;5.63;2.03;;;;;;;19.72;nan;100854.75;5040980;28;20025;-76
2022/05/01 10:06:18;;;;;;;3.58;1.95;;;;;;;19.78;nan;100850.19;5047334;28;20033;-76
2022/05/01 10:08:45;;;;;;;3.10;1.90;;;;;;;19.80;nan;100836.53;5042199;28;20029;-75
2022/05/01 10:11:17;;;;;;;3.85;1.80;;;;;;;19.87;nan;100834.34;5047342;28;20130;-76
2022/05/01 10:13:44;;;;;;;4.53;2.10;;;;;;;20.00;nan;100849.00;5067409;28;20030;-76
2022/05/01 10:16:15;;;;;;;2.47;1.80;;;;;;;20.06;nan;100846.00;5048740;28;20047;-77
2022/05/01 10:18:41;;;;;;;4.40;1.80;;;;;;;19.96;nan;100828.16;5039127;28;20033;-77
2022/05/01 10:21:09;;;;;;;1.90;1.73;;;;;;;20.07;nan;100838.78;5049411;28;20057;-78
2022/05/01 10:23:35;;;;;;;2.75;1.60;;;;;;;20.15;nan;100832.84;5061442;28;20431;-78
2022/05/01 10:26:24;;;;;;;1.60;1.48;;;;;;;20.37;nan;100837.75;5040542;28;20037;-77
2022/05/01 10:29:17;;;;;;;3.72;1.80;;;;;;;20.46;nan;100837.97;5055210;28;20040;-78
2022/05/01 10:32:23;;;;;;;2.70;1.50;;;;;;;20.47;nan;100828.84;5018044;28;20103;-77
2022/05/01 10:35:10;;;;;;;1.73;1.50;;;;;;;20.45;nan;100813.09;5019594;28;20040;-76
2022/05/01 10:38:06;;;;;;;1.70;1.60;;;;;;;20.67;nan;100833.28;5025590;28;20025;-76
2022/05/01 10:40:55;;;;;;;2.38;1.70;;;;;;;20.70;nan;100827.34;5032739;28;20061;-78
2022/05/01 10:43:31;;;;;;;3.17;1.65;;;;;;;20.77;nan;100828.63;5038899;28;20500;-76
2022/05/01 10:46:04;;;;;;;2.97;2.08;;;;;;;20.74;nan;100804.31;5019705;28;20103;-77
2022/05/01 10:48:33;;;;;;;2.90;1.90;;;;;;;20.85;nan;100824.50;5015316;28;20761;-77
2022/05/01 10:51:38;;;;;;;2.03;1.63;;;;;;;20.89;nan;100824.75;5032832;28;20045;-77
2022/05/01 10:54:09;;;;;;;2.42;1.20;;;;;;;20.94;nan;100811.31;5031772;28;20096;-78
2022/05/01 10:56:36;;;;;;;2.08;1.20;;;;;;;21.00;nan;100820.91;5043910;28;20037;-78
2022/05/01 10:59:29;;;;;;;2.20;1.40;;;;;;;21.09;nan;100813.03;5051689;28;20576;-77
2022/05/01 11:02:25;;;;;;;2.33;1.70;;;;;;;21.16;nan;100808.91;5052992;28;20044;-78
2022/05/01 11:04:52;;;;;;;3.00;1.67;;;;;;;21.10;nan;100801.25;5048398;28;20045;-77
2022/05/01 11:07:19;;;;;;;2.83;1.50;;;;;;;21.14;nan;100781.66;5042031;28;20040;-78
2022/05/01 11:09:47;;;;;;;1.90;1.35;;;;;;;21.25;nan;100791.13;5053926;28;20021;-77
2022/05/01 11:12:15;;;;;;;4.60;1.80;;;;;;;21.29;nan;100788.69;5051386;28;20112;-76
2022/05/01 11:15:08;;;;;;;3.03;1.85;;;;;;;21.41;nan;100797.13;5031542;28;20029;-78
2022/05/01 11:17:36;;;;;;;1.85;1.30;;;;;;;21.41;nan;100786.41;5051121;28;20483;-79
2022/05/01 11:20:23;;;;;;;2.63;1.38;;;;;;;21.42;nan;100785.31;5057739;28;20402;-76
2022/05/01 11:22:50;;;;;;;2.38;1.55;;;;;;;21.41;nan;100781.06;5057902;28;20058;-77
2022/05/01 11:25:32;;;;;;;5.25;1.45;;;;;;;21.53;nan;100777.16;5038045;28;20065;-78
2022/05/01 11:27:58;;;;;;;2.38;1.40;;;;;;;21.60;nan;100788.34;5034398;28;20033;-78
2022/05/01 11:30:27;;;;;;;2.05;1.40;;;;;;;21.65;nan;100769.50;5050983;28;20128;-77
2022/05/01 11:33:00;;;;;;;1.67;1.30;;;;;;;21.48;nan;100735.16;5051531;28;20138;-80
2022/05/01 11:35:57;;;;;;;1.83;1.50;;;;;;;21.70;nan;100769.41;5033708;28;20037;-78
2022/05/01 11:38:38;;;;;;;1.85;1.30;;;;;;;21.43;nan;100716.47;5051575;28;20068;-77
2022/05/01 11:41:06;;;;;;;4.22;1.48;;;;;;;21.72;nan;100755.72;5036515;28;20041;-78
2022/05/01 11:43:32;;;;;;;2.95;1.50;;;;;;;21.67;nan;100745.88;5054508;28;20094;-77
2022/05/01 11:46:02;;;;;;;3.50;1.42;;;;;;;21.79;nan;100750.81;5054458;28;20086;-78
2022/05/01 11:48:28;;;;;;;3.92;1.58;;;;;;;21.84;nan;100745.34;5053446;28;20033;-77
2022/05/01 11:50:58;;;;;;;2.42;1.50;;;;;;;21.84;nan;100735.44;5036466;28;20039;-78
2022/05/01 11:53:32;;;;;;;2.05;1.58;;;;;;;21.81;nan;100735.19;5044241;28;20091;-77
2022/05/01 12:04:29;;;;;;;4.18;1.80;;;;;;;21.78;nan;100722.38;5054063;28;20395;-76
2022/05/01 12:06:58;;;;;;;2.00;1.50;;;;;;;21.83;nan;100731.13;5052142;28;20487;-77
2022/05/01 12:09:26;;;;;;;1.87;1.60;;;;;;;21.75;nan;100721.09;5054438;28;20510;-75
2022/05/01 12:11:51;;;;;;;3.58;1.67;;;;;;;21.72;nan;100696.75;5033814;28;20068;-76
2022/05/01 12:14:17;;;;;;;2.90;2.00;;;;;;;21.87;nan;100724.09;5036027;28;20483;-76
2022/05/01 12:16:45;;;;;;;3.55;1.60;;;;;;;21.91;nan;100718.16;5036766;28;20061;-74
2022/05/01 12:19:10;;;;;;;2.65;1.58;;;;;;;21.72;nan;100699.44;5066342;28;20036;-77
2022/05/01 12:21:36;;;;;;;4.63;1.80;;;;;;;21.73;nan;100696.44;5076471;28;20054;-73
2022/05/01 12:24:04;;;;;;;1.80;1.60;;;;;;;21.71;nan;100698.63;5059317;28;20044;-72
2022/05/01 12:26:33;;;;;;;3.28;1.50;;;;;;;21.59;nan;100695.59;5058327;28;20037;-74
2022/05/01 12:28:59;;;;;;;5.88;1.58;;;;;;;21.63;nan;100699.31;5033770;28;20495;-73
2022/05/01 12:31:26;;;;;;;2.63;1.70;;;;;;;21.57;nan;100695.09;5051850;28;20048;-72
2022/05/01 12:33:52;;;;;;;2.00;1.80;;;;;;;21.64;nan;100704.38;5050509;28;20037;-73
2022/05/01 12:36:25;;;;;;;2.30;1.48;;;;;;;21.62;nan;100701.19;5053480;28;20033;-72
2022/05/01 12:39:01;;;;;;;2.17;1.98;;;;;;;21.60;nan;100692.66;5051494;28;20041;-72
2022/05/01 12:44:30;;;;;;;3.67;2.03;;;;;;;21.51;nan;100677.50;4978550;28;20038;-73
2022/05/01 12:46:56;;;;;;;3.47;2.58;;;;;;;21.49;nan;100685.03;4977114;28;20046;-74
2022/05/01 12:49:25;;;;;;;4.57;3.45;;;;;;;21.45;nan;100688.31;4969601;28;20039;-75
2022/05/01 12:51:51;;;;;;;6.63;4.53;;;;;;;21.38;nan;100679.81;4976174;28;20097;-74
2022/05/01 12:54:19;;;;;;;5.97;4.10;;;;;;;21.37;nan;100678.22;4958581;28;20034;-72
2022/05/01 12:56:45;;;;;;;2.67;2.30;;;;;;;21.37;nan;100680.88;4965520;28;20401;-74
2022/05/01 12:59:29;;;;;;;4.95;1.55;;;;;;;21.29;nan;100670.03;4965792;28;20057;-72
2022/05/01 13:01:56;;;;;;;6.25;3.40;;;;;;;21.37;nan;100672.06;4971141;28;20042;-71
2022/05/01 13:04:27;;;;;;;5.13;2.60;;;;;;;21.31;nan;100665.16;4988235;28;20058;-72
2022/05/01 13:06:53;;;;;;;3.08;2.40;;;;;;;21.14;nan;100652.28;4983118;28;20382;-73
2022/05/01 13:09:19;;;;;;;4.03;2.75;;;;;;;21.08;nan;100653.47;4984110;28;20452;-73
2022/05/01 13:12:02;;;;;;;5.40;4.30;;;;;;;21.17;nan;100654.41;4970869;28;20074;-73
2022/05/01 13:14:36;;;;;;;10.55;6.65;;;;;;;21.12;nan;100649.91;4987830;28;20479;-73